Aérodrome :
LOGIN :

S'inscrire | Disclaimer

   EN    FR    IT 

 










Légende :    VFR   VFR Marginal   IFR   IFR Intensif   IFR Très Intensif
Visi : 
Plafond : 
>= 8 km
>= 3000ft
5 à 8 km
1000 à 3000 ft
1500m à 5 km
500 à 1000 ft
800 à 1500m
200 à 500 ft
< 800m
< 200 ft
Symboles :   Orages  Brouillard  Fortes neiges  Fortes précipitations  Vent > 20 kt
SIGMETs :   Divers  Orages  Givrage  Turbulence  Onde Orograph.  Cendres Volcan.







- Altitude de l'aérodrome : 465 ft
- Code IATA : LEJ


EDDP - Leipzig Halle

DERNIER METAR :
  • 140420Z 23018KT 9999 FEW020 04/02 Q0989 TEMPO 23020G30KT

METARs EXPIRÉS :
  • 140350Z 23018KT 9999 FEW022 04/02 Q0989 TEMPO 23020G30KT
  • 140320Z 23020KT 9999 SCT025 SCT048 04/02 Q0989 TEMPO 23020G30KT
  • 140250Z 22023KT 9999 BKN025 05/02 Q0988 TEMPO 21025G35KT
  • 140220Z 21020KT 9999 BKN028 BKN130 05/02 Q0988 TEMPO 21015G25KT BKN012
  • 140150Z 20017KT 9999 OVC033 04/02 Q0988 TEMPO 20015G25KT BKN012
  • 140120Z 19017KT 9999 -RA FEW017 BKN035 04/03 Q0988 RERA TEMPO 19015G25KT BKN012

TAF TAF EDDP
Valide du 14 à 00h jusqu'au 15 à 00h UTC


132300Z 1400/1424 21015G25KT 9999 BKN020
TEMPO 1400/1404 4000 -RADZ BKN014
BECMG 1408/1410 23020G30KT
PROB30
TEMPO 1408/1412 21025G40KT BKN010
BECMG 1416/1419 20010KT
Pas de NOTAMs connus pour ce terrain.
2 SIGMETs publiés pour la FIR München (EDMM) :
 
Turbulence forte
EDMM SIGMET 2 VALID 140417/140800 EDZM
EDMM MUNCHEN FIR SEV TURB FCST S OF LINE N4855 E00959 - N4855 E01344 SFC/FL060 STNR NC=
Turbulence forte
EDMM SIGMET 1 VALID 140020/140420 EDZM
EDMM MUNCHEN FIR SEV TURB FCST S OF LINE N4749 E00937 - N4748 E01300 SFC/FL150 STNR NC=



MET'MAP, la Météo Aéronautique d'un coup d'oeil ! - Copyright ORBIFLY Décembre 2007 - Disclaimer

ORBIFLY MET'MAP TEAM :

Programmation & Développement : Alexandra Zaïnal
Conception & Développement : Baudouin d'Aumeries
Co-Programmation & Développement : Marc-Olivier Méhu
Soutien technique & logistique : Manuel Goepfert

Contact : metmap@orbifly.com




SOURCES & CREDITS :

   NOAA